Time;durP1;ratioP1;P1;durP2;ratioP2;P2;SDS_P1;SDS_P2;PMS_P1;PMS_P2;Temp;Humidity;BMP_temperature;BMP_pressure;BME280_temperature;BME280_humidity;BME280_pressure;Samples;Min_cycle;Max_cycle;Signal;HPM_P1;HPM_P2
2023/07/26 00:00:11;;;;;;;4.13;1.50;;;16.10;99.90;;;;;;5037424;28;20211;-69
2023/07/26 00:02:37;;;;;;;2.40;1.13;;;16.00;99.90;;;;;;5032181;28;20210;-69
2023/07/26 00:05:02;;;;;;;4.80;1.40;;;15.90;99.90;;;;;;5034178;28;20222;-69
2023/07/26 00:07:28;;;;;;;4.07;1.47;;;16.00;99.90;;;;;;5031316;28;20207;-70
2023/07/26 00:09:53;;;;;;;3.70;1.47;;;15.90;99.90;;;;;;5036249;28;20297;-69
2023/07/26 00:12:19;;;;;;;4.33;1.40;;;15.80;99.90;;;;;;5038278;28;20760;-70
2023/07/26 00:14:44;;;;;;;1.67;1.40;;;15.70;99.90;;;;;;5033573;28;20264;-70
2023/07/26 00:17:10;;;;;;;4.20;1.50;;;15.60;99.90;;;;;;5033957;28;20246;-70
2023/07/26 00:19:35;;;;;;;2.30;1.03;;;15.60;99.90;;;;;;5030943;28;20203;-70
2023/07/26 00:22:01;;;;;;;4.93;1.63;;;15.60;99.90;;;;;;5030261;28;20190;-71
2023/07/26 00:24:26;;;;;;;2.90;1.67;;;15.50;99.90;;;;;;5029320;28;20197;-71
2023/07/26 00:26:51;;;;;;;5.30;1.93;;;15.50;99.90;;;;;;5036955;28;20236;-71
2023/07/26 00:29:17;;;;;;;4.13;1.30;;;15.40;99.90;;;;;;5037193;28;20210;-71
2023/07/26 00:31:43;;;;;;;2.17;1.27;;;15.40;99.90;;;;;;5032719;28;20202;-70
2023/07/26 00:34:08;;;;;;;3.10;1.60;;;15.30;99.90;;;;;;5035529;28;20199;-70
2023/07/26 00:36:34;;;;;;;3.83;2.03;;;15.30;99.90;;;;;;5033031;28;20259;-70
2023/07/26 00:38:59;;;;;;;1.80;1.00;;;15.20;99.90;;;;;;5036882;28;20776;-70
2023/07/26 00:41:25;;;;;;;4.90;1.60;;;15.10;99.90;;;;;;5032204;28;20280;-70
2023/07/26 00:43:50;;;;;;;2.13;1.03;;;15.20;99.90;;;;;;5036850;28;20206;-71
2023/07/26 00:46:16;;;;;;;4.17;1.40;;;15.10;99.90;;;;;;5035144;28;20213;-69
2023/07/26 00:48:43;;;;;;;2.97;1.37;;;15.00;99.90;;;;;;5035153;28;20293;-70
2023/07/26 00:51:08;;;;;;;5.27;1.67;;;15.00;99.90;;;;;;5036458;28;20229;-71
2023/07/26 00:53:34;;;;;;;5.13;1.50;;;14.90;99.90;;;;;;5036833;28;20567;-71
2023/07/26 00:56:00;;;;;;;2.97;1.70;;;14.90;99.90;;;;;;5031862;28;20263;-71
2023/07/26 00:58:26;;;;;;;2.00;1.10;;;14.90;99.90;;;;;;5028052;28;20266;-69
2023/07/26 01:00:53;;;;;;;2.90;1.50;;;14.80;99.90;;;;;;5036695;28;20194;-69
2023/07/26 01:03:18;;;;;;;4.30;1.20;;;14.80;99.90;;;;;;5032845;28;20211;-70
2023/07/26 01:06:10;;;;;;;3.43;1.30;;;14.70;99.90;;;;;;5031516;28;20199;-70
2023/07/26 01:09:00;;;;;;;1.40;1.20;;;14.70;99.90;;;;;;5029796;28;20911;-68
2023/07/26 01:11:43;;;;;;;4.20;1.53;;;14.70;99.90;;;;;;5033909;28;20202;-69
2023/07/26 01:14:12;;;;;;;1.67;1.40;;;14.60;99.90;;;;;;5032970;28;20197;-69
2023/07/26 01:16:39;;;;;;;4.87;1.47;;;14.60;99.90;;;;;;5027131;28;20219;-69
2023/07/26 01:19:04;;;;;;;3.07;1.97;;;14.50;99.90;;;;;;5031864;28;20532;-70
2023/07/26 01:21:31;;;;;;;4.70;1.60;;;14.40;99.90;;;;;;5030160;28;20665;-69
2023/07/26 01:23:57;;;;;;;3.23;1.20;;;14.40;99.90;;;;;;5030297;28;20276;-69
2023/07/26 01:26:22;;;;;;;1.83;1.57;;;14.30;99.90;;;;;;5026205;28;20754;-69
2023/07/26 01:28:48;;;;;;;7.07;1.57;;;14.30;99.90;;;;;;5008355;28;20592;-69
2023/07/26 01:31:15;;;;;;;3.03;1.20;;;14.30;99.90;;;;;;5035199;28;20194;-71
2023/07/26 01:33:42;;;;;;;5.37;1.53;;;14.30;99.90;;;;;;5034274;28;20289;-69
2023/07/26 01:36:09;;;;;;;6.17;1.53;;;14.30;99.90;;;;;;5035191;28;20278;-69
2023/07/26 01:38:35;;;;;;;5.17;1.67;;;14.20;99.90;;;;;;5035568;28;20293;-70
2023/07/26 01:41:01;;;;;;;5.93;2.40;;;14.30;99.90;;;;;;5036553;28;20186;-69
2023/07/26 01:43:27;;;;;;;6.03;1.77;;;14.30;99.90;;;;;;5036450;28;20697;-69
2023/07/26 01:45:52;;;;;;;3.40;1.37;;;14.30;99.90;;;;;;5033860;28;20199;-69
2023/07/26 01:48:18;;;;;;;2.50;1.60;;;14.20;99.90;;;;;;5036387;28;20665;-69
2023/07/26 01:50:44;;;;;;;9.83;2.30;;;14.10;99.90;;;;;;5036020;28;20234;-69
2023/07/26 01:53:09;;;;;;;2.47;2.27;;;14.20;99.90;;;;;;5035338;28;20195;-69
2023/07/26 01:55:34;;;;;;;4.30;1.43;;;14.20;99.90;;;;;;5036395;28;20187;-70
2023/07/26 01:58:00;;;;;;;4.43;1.63;;;14.10;99.90;;;;;;5036723;28;20562;-69
2023/07/26 02:00:25;;;;;;;2.47;1.40;;;14.00;99.90;;;;;;5033902;28;20297;-70
2023/07/26 02:02:51;;;;;;;1.73;1.33;;;13.90;99.90;;;;;;5036027;28;20206;-70
2023/07/26 02:05:17;;;;;;;3.73;2.50;;;13.90;99.90;;;;;;5036224;28;20617;-68
2023/07/26 02:07:42;;;;;;;5.07;1.43;;;13.80;99.90;;;;;;5036777;28;20597;-68
2023/07/26 02:10:08;;;;;;;3.07;1.53;;;13.80;99.90;;;;;;5036262;28;20310;-69
2023/07/26 02:12:33;;;;;;;4.13;1.80;;;13.80;99.90;;;;;;5034919;28;20681;-66
2023/07/26 02:14:59;;;;;;;4.97;2.03;;;13.80;99.90;;;;;;5031261;28;20264;-68
2023/07/26 02:17:25;;;;;;;4.73;1.70;;;13.90;99.90;;;;;;5035429;28;20397;-72
2023/07/26 02:19:50;;;;;;;4.93;1.90;;;13.80;99.90;;;;;;5035579;28;20203;-71
2023/07/26 02:22:15;;;;;;;6.27;1.57;;;13.70;99.90;;;;;;5036220;28;20230;-68
2023/07/26 02:24:41;;;;;;;2.90;1.23;;;13.70;99.90;;;;;;5035612;28;20264;-67
2023/07/26 02:27:06;;;;;;;2.83;1.67;;;13.60;99.90;;;;;;5034261;28;20213;-69
2023/07/26 02:29:34;;;;;;;4.07;1.30;;;13.60;99.90;;;;;;5035674;28;20614;-69
2023/07/26 02:32:00;;;;;;;4.97;2.20;;;13.60;99.90;;;;;;5031619;28;20199;-72
2023/07/26 02:34:25;;;;;;;5.93;2.03;;;13.60;99.90;;;;;;5036770;28;20298;-70
2023/07/26 02:36:51;;;;;;;3.67;1.73;;;13.60;99.90;;;;;;5036903;28;20210;-69
2023/07/26 02:39:16;;;;;;;1.97;1.60;;;13.50;99.90;;;;;;5033352;28;20221;-69
2023/07/26 02:41:42;;;;;;;5.17;1.60;;;13.50;99.90;;;;;;5035939;28;20203;-69
2023/07/26 02:44:07;;;;;;;8.17;2.27;;;13.40;99.90;;;;;;5036004;28;20257;-70
2023/07/26 02:46:33;;;;;;;4.33;1.73;;;13.40;99.90;;;;;;5036171;28;20252;-70
2023/07/26 02:48:58;;;;;;;6.67;1.80;;;13.40;99.90;;;;;;5036324;28;20202;-70
2023/07/26 02:51:23;;;;;;;1.60;1.50;;;13.40;99.90;;;;;;5037612;28;20234;-71
2023/07/26 02:53:49;;;;;;;3.17;1.40;;;13.60;99.90;;;;;;5039653;28;20202;-69
2023/07/26 02:56:15;;;;;;;4.00;1.87;;;13.70;99.90;;;;;;5039569;28;20608;-70
2023/07/26 02:58:41;;;;;;;2.73;1.93;;;13.60;99.90;;;;;;5039322;28;20222;-69
2023/07/26 03:01:07;;;;;;;3.90;2.07;;;13.60;99.90;;;;;;5039637;28;20194;-69
2023/07/26 03:03:32;;;;;;;2.73;1.80;;;13.50;99.90;;;;;;5037225;28;20459;-69
2023/07/26 03:05:58;;;;;;;3.57;1.80;;;13.50;99.90;;;;;;5030496;28;20265;-69
2023/07/26 03:08:23;;;;;;;3.63;2.40;;;13.40;99.90;;;;;;5038951;28;20209;-69
2023/07/26 03:10:52;;;;;;;6.87;2.60;;;13.40;99.90;;;;;;5038886;28;20207;-69
2023/07/26 03:13:18;;;;;;;5.27;2.53;;;13.30;99.90;;;;;;5039385;28;20214;-70
2023/07/26 03:15:44;;;;;;;8.63;2.07;;;13.40;99.90;;;;;;5037081;28;20203;-70
2023/07/26 03:18:10;;;;;;;4.30;2.27;;;13.30;99.90;;;;;;5038864;28;20202;-70
2023/07/26 03:20:35;;;;;;;5.00;1.83;;;13.30;99.90;;;;;;5038718;28;20720;-70
2023/07/26 03:23:01;;;;;;;2.97;2.43;;;13.20;99.90;;;;;;5039130;28;20240;-68
2023/07/26 03:25:26;;;;;;;5.87;2.73;;;13.30;99.90;;;;;;5036976;28;20206;-68
2023/07/26 03:27:52;;;;;;;2.87;2.10;;;13.20;99.90;;;;;;5029583;28;20213;-69
2023/07/26 03:30:18;;;;;;;7.67;2.17;;;13.20;99.90;;;;;;5039020;28;20248;-70
2023/07/26 03:32:43;;;;;;;3.63;2.13;;;13.20;99.90;;;;;;5033785;28;21115;-65
2023/07/26 03:35:09;;;;;;;4.03;2.37;;;13.20;99.90;;;;;;5038526;28;20203;-67
2023/07/26 03:37:34;;;;;;;5.63;2.30;;;13.20;99.90;;;;;;5037274;28;20222;-68
2023/07/26 03:40:00;;;;;;;4.30;2.13;;;13.20;99.90;;;;;;5038750;28;20206;-67
2023/07/26 03:42:25;;;;;;;8.77;2.70;;;13.20;99.90;;;;;;5029455;28;20203;-67
2023/07/26 03:44:51;;;;;;;4.30;2.57;;;13.20;99.90;;;;;;5038653;28;20256;-71
2023/07/26 03:47:16;;;;;;;5.37;2.20;;;13.30;99.90;;;;;;5038130;28;20666;-72
2023/07/26 03:49:42;;;;;;;7.20;2.40;;;13.20;99.90;;;;;;5038401;28;20195;-72
2023/07/26 03:52:08;;;;;;;3.13;2.23;;;13.20;99.90;;;;;;5031792;28;20271;-70
2023/07/26 03:54:33;;;;;;;6.13;2.70;;;13.20;99.90;;;;;;5033499;28;20203;-70
2023/07/26 03:56:59;;;;;;;6.03;2.93;;;13.20;99.90;;;;;;5033597;28;20313;-70
2023/07/26 03:59:24;;;;;;;6.47;3.23;;;13.20;99.90;;;;;;5033308;28;20209;-70
2023/07/26 04:01:49;;;;;;;4.03;2.30;;;13.10;99.90;;;;;;5027883;28;20304;-67
2023/07/26 04:04:15;;;;;;;4.07;2.60;;;13.00;99.90;;;;;;5031435;28;20237;-67
2023/07/26 04:06:40;;;;;;;4.80;2.13;;;13.00;99.90;;;;;;5032956;28;20302;-67
2023/07/26 04:09:06;;;;;;;6.30;2.63;;;13.00;99.90;;;;;;5037980;28;20248;-68
2023/07/26 04:11:31;;;;;;;3.83;2.97;;;12.90;99.90;;;;;;5034998;28;20553;-67
2023/07/26 04:13:57;;;;;;;5.63;3.17;;;13.10;99.90;;;;;;5037121;28;20197;-68
2023/07/26 04:16:23;;;;;;;2.67;2.30;;;12.90;99.90;;;;;;5037741;28;20230;-68
2023/07/26 04:18:48;;;;;;;5.93;2.40;;;13.00;99.90;;;;;;5036407;28;20205;-68
2023/07/26 04:21:15;;;;;;;6.77;3.03;;;13.10;99.90;;;;;;5037550;28;20708;-68
2023/07/26 04:23:42;;;;;;;8.63;2.37;;;13.30;99.90;;;;;;5037638;28;20205;-68
2023/07/26 04:26:07;;;;;;;5.37;2.63;;;13.30;99.90;;;;;;5032847;28;20566;-67
2023/07/26 04:28:33;;;;;;;9.93;2.00;;;13.20;99.90;;;;;;5037448;28;20210;-66
2023/07/26 04:30:58;;;;;;;3.40;2.40;;;13.40;99.90;;;;;;5031547;28;20283;-67
2023/07/26 04:33:24;;;;;;;5.17;2.27;;;13.40;99.90;;;;;;5037273;28;20245;-70
2023/07/26 04:35:51;;;;;;;5.43;3.00;;;13.20;99.90;;;;;;5036957;28;20202;-69
2023/07/26 04:38:20;;;;;;;6.43;2.10;;;13.30;99.90;;;;;;5037484;28;20222;-67
2023/07/26 04:40:47;;;;;;;5.20;2.43;;;13.20;99.90;;;;;;5034937;28;20195;-68
2023/07/26 04:43:16;;;;;;;2.53;2.00;;;13.20;99.90;;;;;;5037223;28;20232;-67
2023/07/26 04:45:42;;;;;;;3.50;2.07;;;13.20;99.90;;;;;;5036857;28;20663;-69
2023/07/26 04:48:07;;;;;;;3.57;2.57;;;13.20;99.90;;;;;;5037237;28;20297;-68
2023/07/26 04:50:33;;;;;;;4.00;2.67;;;13.30;99.90;;;;;;5018964;28;20236;-70
2023/07/26 04:52:58;;;;;;;6.10;2.80;;;13.20;99.90;;;;;;5035171;28;20209;-69
2023/07/26 04:55:23;;;;;;;5.30;2.80;;;13.10;99.90;;;;;;5037227;28;20695;-73
2023/07/26 04:57:52;;;;;;;3.53;2.07;;;13.00;99.90;;;;;;5037147;28;20203;-77
2023/07/26 05:00:17;;;;;;;5.07;2.77;;;13.10;99.90;;;;;;5028688;28;20220;-78
2023/07/26 05:02:43;;;;;;;8.50;2.77;;;13.20;99.90;;;;;;5036783;28;20191;-79
2023/07/26 05:05:08;;;;;;;5.20;3.00;;;13.40;99.90;;;;;;5035556;28;20286;-80
2023/07/26 05:07:35;;;;;;;6.93;2.83;;;13.50;99.90;;;;;;5033322;28;20206;-80
2023/07/26 05:10:00;;;;;;;4.20;2.73;;;13.50;99.90;;;;;;5037397;28;20670;-73
2023/07/26 05:12:26;;;;;;;5.77;2.50;;;13.30;99.90;;;;;;5036932;28;20203;-68
2023/07/26 05:14:52;;;;;;;5.23;2.50;;;13.40;99.90;;;;;;5037170;28;20198;-79
2023/07/26 05:17:17;;;;;;;4.43;2.17;;;13.40;99.90;;;;;;5037048;28;20688;-80
2023/07/26 05:19:43;;;;;;;3.73;2.17;;;13.50;99.90;;;;;;5037513;28;20739;-79
2023/07/26 05:22:08;;;;;;;4.77;2.03;;;13.60;99.90;;;;;;5035092;28;20625;-78
2023/07/26 05:24:34;;;;;;;3.20;2.33;;;13.70;99.90;;;;;;5035513;28;20199;-74
2023/07/26 05:26:59;;;;;;;7.07;2.43;;;13.70;99.90;;;;;;5035558;28;20289;-77
2023/07/26 05:29:25;;;;;;;1.97;1.87;;;13.80;99.90;;;;;;5036952;28;20661;-78
2023/07/26 05:31:50;;;;;;;4.40;2.27;;;13.80;99.90;;;;;;5036195;28;20282;-77
2023/07/26 05:34:16;;;;;;;5.93;2.40;;;14.00;99.90;;;;;;5035253;28;20285;-74
2023/07/26 05:36:42;;;;;;;7.63;2.33;;;13.90;99.90;;;;;;5036113;28;20218;-75
2023/07/26 05:39:07;;;;;;;5.10;1.83;;;14.10;99.90;;;;;;5036723;28;20384;-76
2023/07/26 05:41:32;;;;;;;5.70;2.20;;;14.00;99.90;;;;;;5037242;28;21118;-75
2023/07/26 05:43:59;;;;;;;5.33;2.47;;;14.00;99.90;;;;;;5037540;28;20206;-72
2023/07/26 05:46:28;;;;;;;5.63;2.90;;;14.10;99.90;;;;;;5035809;28;20206;-76
2023/07/26 05:48:53;;;;;;;8.00;2.93;;;14.20;99.90;;;;;;5034361;28;20203;-75
2023/07/26 05:51:21;;;;;;;5.87;2.20;;;14.40;99.90;;;;;;5036101;28;20288;-76
2023/07/26 05:53:47;;;;;;;5.37;2.70;;;14.20;99.90;;;;;;5036274;28;20727;-74
2023/07/26 05:56:14;;;;;;;7.50;3.07;;;14.10;99.90;;;;;;5030771;28;20695;-72
2023/07/26 05:58:39;;;;;;;11.07;2.87;;;14.10;99.90;;;;;;5029628;28;20242;-71
2023/07/26 06:01:05;;;;;;;5.73;2.97;;;14.00;99.90;;;;;;5035520;28;20233;-71
2023/07/26 06:03:33;;;;;;;8.70;3.37;;;14.20;99.90;;;;;;5032703;28;20582;-71
2023/07/26 06:05:59;;;;;;;5.10;2.63;;;14.30;99.90;;;;;;5035593;28;20202;-72
2023/07/26 06:08:24;;;;;;;11.43;3.17;;;14.40;99.90;;;;;;5030652;28;20203;-70
2023/07/26 06:10:50;;;;;;;6.27;2.63;;;14.50;99.90;;;;;;5031233;28;20617;-65
2023/07/26 06:13:15;;;;;;;5.87;2.67;;;14.60;99.90;;;;;;5031493;28;20282;-74
2023/07/26 06:15:42;;;;;;;5.10;2.17;;;14.60;99.90;;;;;;5028898;28;20199;-72
2023/07/26 06:18:08;;;;;;;4.43;2.20;;;14.70;99.90;;;;;;5024896;28;20215;-69
2023/07/26 06:20:34;;;;;;;4.67;1.97;;;14.70;99.90;;;;;;5033691;28;20206;-70
2023/07/26 06:23:00;;;;;;;6.60;2.57;;;14.80;99.90;;;;;;5033213;28;20218;-69
2023/07/26 06:25:26;;;;;;;3.57;2.70;;;14.90;99.90;;;;;;5037687;28;20207;-71
2023/07/26 06:27:51;;;;;;;3.13;2.20;;;15.10;99.90;;;;;;5039198;28;20199;-78
2023/07/26 06:30:17;;;;;;;3.83;1.77;;;15.10;99.90;;;;;;5040980;28;20752;-79
2023/07/26 06:32:42;;;;;;;6.40;2.17;;;15.10;99.90;;;;;;5036573;28;20199;-80
2023/07/26 06:35:11;;;;;;;5.43;2.27;;;15.10;99.90;;;;;;5041243;28;20208;-79
2023/07/26 06:37:37;;;;;;;7.60;2.63;;;15.20;99.90;;;;;;5032115;28;20215;-68
2023/07/26 06:40:03;;;;;;;5.37;2.17;;;15.30;99.90;;;;;;5036720;28;20748;-70
2023/07/26 06:42:29;;;;;;;3.33;2.23;;;15.40;99.90;;;;;;5038880;28;20207;-71
2023/07/26 06:44:54;;;;;;;3.50;1.80;;;15.40;99.90;;;;;;5039167;28;20250;-73
2023/07/26 06:47:20;;;;;;;3.13;2.37;;;15.40;99.90;;;;;;5036898;28;20345;-75
2023/07/26 06:49:45;;;;;;;3.50;2.10;;;15.50;99.90;;;;;;5032938;28;20202;-72
2023/07/26 06:52:11;;;;;;;3.53;2.20;;;15.50;99.90;;;;;;5034455;28;20222;-79
2023/07/26 06:54:36;;;;;;;2.37;2.00;;;15.50;99.90;;;;;;5035725;28;20191;-78
2023/07/26 06:57:02;;;;;;;2.10;1.90;;;15.50;99.90;;;;;;5035445;28;20260;-77
2023/07/26 06:59:27;;;;;;;4.27;1.50;;;15.50;99.90;;;;;;5038677;28;20254;-79
2023/07/26 07:01:53;;;;;;;7.83;2.43;;;15.60;99.90;;;;;;5040785;28;20210;-76
2023/07/26 07:04:19;;;;;;;5.83;2.00;;;15.70;99.90;;;;;;5033973;28;20232;-74
2023/07/26 07:06:44;;;;;;;4.00;2.00;;;15.80;99.90;;;;;;5040736;28;20217;-72
2023/07/26 07:09:10;;;;;;;3.43;1.70;;;16.00;99.90;;;;;;5041937;28;20681;-82
2023/07/26 07:11:35;;;;;;;4.00;1.90;;;15.90;99.90;;;;;;5039760;28;20285;-83
2023/07/26 07:14:01;;;;;;;3.17;2.10;;;15.80;99.90;;;;;;5037078;28;20199;-82
2023/07/26 07:16:27;;;;;;;2.63;2.07;;;15.90;99.90;;;;;;5044011;28;20662;-75
2023/07/26 07:18:52;;;;;;;3.63;2.20;;;16.00;99.90;;;;;;5038125;28;20203;-79
2023/07/26 07:21:18;;;;;;;2.97;2.00;;;16.00;99.90;;;;;;5039355;28;20694;-71
2023/07/26 07:23:44;;;;;;;3.40;1.93;;;16.00;99.90;;;;;;5039540;28;20207;-74
2023/07/26 07:26:11;;;;;;;3.47;1.97;;;16.10;99.90;;;;;;5034860;28;20207;-75
2023/07/26 07:28:37;;;;;;;3.63;2.20;;;16.20;99.90;;;;;;5039912;28;20198;-75
2023/07/26 07:31:02;;;;;;;3.93;1.73;;;16.20;99.90;;;;;;5034410;28;20563;-74
2023/07/26 07:33:28;;;;;;;4.07;2.00;;;16.30;99.90;;;;;;5037118;28;20285;-73
2023/07/26 07:35:53;;;;;;;3.87;1.83;;;16.30;99.90;;;;;;5027953;28;20195;-72
2023/07/26 07:38:18;;;;;;;2.90;1.60;;;16.40;99.90;;;;;;5034040;28;20207;-72
2023/07/26 07:40:44;;;;;;;4.30;1.37;;;16.50;99.90;;;;;;5038945;28;20636;-74
2023/07/26 07:43:09;;;;;;;2.03;1.83;;;16.30;99.90;;;;;;5029295;28;20195;-73
2023/07/26 07:45:40;;;;;;;4.00;1.53;;;16.40;99.90;;;;;;5032623;28;20666;-79
2023/07/26 07:48:06;;;;;;;5.37;1.87;;;16.50;99.90;;;;;;5032816;28;20209;-72
2023/07/26 07:50:32;;;;;;;2.40;1.47;;;16.50;99.90;;;;;;5037381;28;20198;-80
2023/07/26 07:52:57;;;;;;;7.57;1.97;;;16.60;99.90;;;;;;5038613;28;20236;-80
2023/07/26 07:55:23;;;;;;;3.20;1.50;;;16.80;99.90;;;;;;5039464;28;20289;-80
2023/07/26 07:57:48;;;;;;;3.33;1.40;;;16.90;99.90;;;;;;5038545;28;20217;-80
2023/07/26 08:00:14;;;;;;;2.77;1.53;;;16.80;99.90;;;;;;5035621;28;20620;-79
2023/07/26 08:02:40;;;;;;;2.40;1.50;;;16.80;99.90;;;;;;5038033;28;20214;-79
2023/07/26 08:05:05;;;;;;;4.77;1.73;;;16.70;99.90;;;;;;5034542;28;20191;-79
2023/07/26 08:07:31;;;;;;;3.57;1.43;;;16.80;99.90;;;;;;5031594;28;20569;-77
2023/07/26 08:09:56;;;;;;;3.73;1.70;;;16.80;99.90;;;;;;5036591;28;20187;-78
2023/07/26 08:12:22;;;;;;;3.27;1.83;;;16.70;99.90;;;;;;5038109;28;20199;-73
2023/07/26 08:14:50;;;;;;;2.77;1.37;;;16.80;99.90;;;;;;5032386;28;20199;-73
2023/07/26 08:17:17;;;;;;;2.77;1.90;;;16.70;99.90;;;;;;5035283;28;20705;-73
2023/07/26 08:19:44;;;;;;;1.83;1.10;;;16.80;99.90;;;;;;5034601;28;20316;-73
2023/07/26 08:22:09;;;;;;;5.73;1.77;;;16.90;99.90;;;;;;5035417;28;20207;-72
2023/07/26 08:24:35;;;;;;;2.73;1.80;;;17.00;99.90;;;;;;5036200;28;20198;-74
2023/07/26 08:27:02;;;;;;;3.00;1.67;;;17.10;99.90;;;;;;5037667;28;20673;-77
2023/07/26 08:29:28;;;;;;;4.93;1.33;;;17.10;99.90;;;;;;5038228;28;20195;-75
2023/07/26 08:31:53;;;;;;;4.53;2.03;;;17.20;99.90;;;;;;5031853;28;20211;-79
2023/07/26 08:34:19;;;;;;;2.47;1.57;;;17.00;99.90;;;;;;5036145;28;20233;-74
2023/07/26 08:36:44;;;;;;;3.17;1.60;;;17.00;99.90;;;;;;5033281;28;20338;-78
2023/07/26 08:39:10;;;;;;;3.03;1.60;;;17.00;99.90;;;;;;5036710;28;20569;-73
2023/07/26 08:41:36;;;;;;;4.30;2.43;;;17.10;99.90;;;;;;5033635;28;20225;-75
2023/07/26 08:44:03;;;;;;;1.93;1.50;;;17.00;99.90;;;;;;5037040;28;20214;-74
2023/07/26 08:46:29;;;;;;;4.10;2.37;;;17.10;99.90;;;;;;5036256;28;20207;-78
2023/07/26 08:48:56;;;;;;;1.90;1.77;;;17.20;99.90;;;;;;5036413;28;20195;-71
2023/07/26 08:51:22;;;;;;;7.00;2.03;;;17.20;99.90;;;;;;5037156;28;20250;-70
2023/07/26 08:53:49;;;;;;;4.23;2.00;;;17.20;99.90;;;;;;5037350;28;20193;-71
2023/07/26 08:56:19;;;;;;;3.63;1.53;;;17.30;99.90;;;;;;5036025;28;20219;-72
2023/07/26 08:58:44;;;;;;;3.90;1.80;;;17.50;99.90;;;;;;5036695;28;20206;-69
2023/07/26 09:01:10;;;;;;;1.53;1.30;;;17.50;99.90;;;;;;5031798;28;20588;-76
2023/07/26 09:03:35;;;;;;;2.60;2.40;;;17.70;99.90;;;;;;5030092;28;20246;-74
2023/07/26 09:06:04;;;;;;;2.17;1.17;;;17.90;99.90;;;;;;5035223;28;20612;-75
2023/07/26 09:08:29;;;;;;;1.53;1.10;;;17.70;99.90;;;;;;5033427;28;20560;-78
2023/07/26 09:10:55;;;;;;;2.67;2.00;;;17.80;99.90;;;;;;5029398;28;20595;-78
2023/07/26 09:13:21;;;;;;;2.90;1.50;;;17.90;99.90;;;;;;5038185;28;20283;-78
2023/07/26 09:15:47;;;;;;;4.73;1.73;;;17.90;99.90;;;;;;5034213;28;20199;-78
2023/07/26 09:18:12;;;;;;;6.37;1.93;;;17.90;99.90;;;;;;5037953;28;20220;-78
2023/07/26 09:20:38;;;;;;;3.50;2.03;;;18.00;99.90;;;;;;5038028;28;20589;-76
2023/07/26 09:23:09;;;;;;;1.27;1.17;;;18.00;99.90;;;;;;5034042;28;20199;-78
2023/07/26 09:25:43;;;;;;;1.80;1.43;;;18.10;99.90;;;;;;5033466;28;20590;-78
2023/07/26 09:28:10;;;;;;;2.40;1.47;;;17.90;99.90;;;;;;5037747;28;20198;-78
2023/07/26 09:30:38;;;;;;;1.67;1.23;;;17.90;99.90;;;;;;5037523;28;20212;-75
2023/07/26 09:33:06;;;;;;;1.93;1.20;;;18.00;99.90;;;;;;5037696;28;20211;-76
2023/07/26 09:35:32;;;;;;;1.53;1.37;;;18.20;99.90;;;;;;5020461;28;20294;-74
2023/07/26 09:37:58;;;;;;;3.23;1.77;;;18.40;99.90;;;;;;5036889;28;20306;-73
2023/07/26 09:40:34;;;;;;;3.97;1.50;;;18.30;99.90;;;;;;5035165;28;20205;-73
2023/07/26 09:42:59;;;;;;;2.50;1.57;;;18.30;99.90;;;;;;5032403;28;20197;-73
2023/07/26 09:45:25;;;;;;;1.83;1.10;;;18.40;99.90;;;;;;5037014;28;20245;-73
2023/07/26 09:47:51;;;;;;;3.17;1.43;;;18.50;99.90;;;;;;5036289;28;20196;-74
2023/07/26 09:50:28;;;;;;;3.73;2.23;;;18.40;99.90;;;;;;5016690;28;20210;-74
2023/07/26 09:52:55;;;;;;;2.67;1.20;;;18.20;99.90;;;;;;5035527;28;20217;-76
2023/07/26 09:55:23;;;;;;;3.33;2.17;;;18.20;99.90;;;;;;5036808;28;20262;-75
2023/07/26 09:57:52;;;;;;;2.77;2.23;;;18.40;99.90;;;;;;5033255;28;20233;-74
2023/07/26 10:00:18;;;;;;;2.03;1.30;;;18.60;99.90;;;;;;5038500;28;20261;-77
2023/07/26 10:02:48;;;;;;;2.97;1.43;;;18.60;99.90;;;;;;5040407;28;20230;-76
2023/07/26 10:05:17;;;;;;;2.97;1.30;;;18.50;99.90;;;;;;5036672;28;20222;-77
2023/07/26 10:07:44;;;;;;;1.60;1.50;;;18.50;99.90;;;;;;5037606;28;20207;-75
2023/07/26 10:10:11;;;;;;;3.03;1.73;;;18.60;99.90;;;;;;5040211;28;20204;-77
2023/07/26 10:12:39;;;;;;;1.43;1.27;;;18.90;99.30;;;;;;5040844;28;20209;-76
2023/07/26 10:15:10;;;;;;;2.67;1.43;;;18.80;99.00;;;;;;5041132;28;20937;-75
2023/07/26 10:17:37;;;;;;;10.67;2.80;;;18.90;99.20;;;;;;5035112;28;20236;-77
2023/07/26 10:20:03;;;;;;;2.40;1.37;;;19.00;99.00;;;;;;5040268;28;20209;-76
2023/07/26 10:22:29;;;;;;;1.77;1.40;;;18.70;99.40;;;;;;5040768;28;20192;-75
2023/07/26 10:24:55;;;;;;;1.63;1.33;;;18.50;98.50;;;;;;5039863;28;20666;-77
2023/07/26 10:27:22;;;;;;;5.63;1.40;;;18.50;98.20;;;;;;5038254;28;20199;-75
2023/07/26 10:29:48;;;;;;;2.87;1.57;;;18.60;98.60;;;;;;5040587;28;20225;-77
2023/07/26 10:32:14;;;;;;;1.60;1.40;;;18.90;98.40;;;;;;5039711;28;20233;-75
2023/07/26 10:34:39;;;;;;;1.10;1.00;;;18.90;97.90;;;;;;5040095;28;21238;-76
2023/07/26 10:37:16;;;;;;;1.50;1.40;;;18.90;97.90;;;;;;5036093;28;20265;-77
2023/07/26 10:39:42;;;;;;;3.33;1.53;;;19.00;98.20;;;;;;5034885;28;20416;-76
2023/07/26 10:42:22;;;;;;;1.33;1.20;;;18.90;98.30;;;;;;5030365;28;20753;-75
2023/07/26 10:44:48;;;;;;;2.07;1.47;;;18.90;99.10;;;;;;5036377;28;20199;-76
2023/07/26 10:47:14;;;;;;;1.70;1.60;;;19.00;98.00;;;;;;5038172;28;20544;-75
2023/07/26 10:49:45;;;;;;;2.43;1.43;;;19.20;97.80;;;;;;5037181;28;20255;-77
2023/07/26 10:52:11;;;;;;;1.40;0.83;;;19.40;97.50;;;;;;5039183;28;20674;-77
2023/07/26 10:54:44;;;;;;;1.93;1.67;;;19.50;96.70;;;;;;5035577;28;20670;-78
2023/07/26 10:57:20;;;;;;;3.93;1.57;;;19.70;97.40;;;;;;5029660;28;20223;-77
2023/07/26 11:00:00;;;;;;;7.30;1.87;;;19.50;97.50;;;;;;5035486;28;20204;-77
2023/07/26 11:02:46;;;;;;;2.53;1.37;;;19.30;97.40;;;;;;5034970;28;20192;-75
2023/07/26 11:05:17;;;;;;;2.13;1.67;;;19.30;97.20;;;;;;5037328;28;20211;-73
2023/07/26 11:07:58;;;;;;;1.50;1.40;;;19.60;97.90;;;;;;5039391;28;20204;-74
2023/07/26 11:10:34;;;;;;;3.40;1.67;;;19.90;96.90;;;;;;5036691;28;20512;-74
2023/07/26 11:13:10;;;;;;;3.50;1.87;;;19.80;97.30;;;;;;5039258;28;20719;-75
2023/07/26 11:15:47;;;;;;;2.37;1.57;;;19.90;98.20;;;;;;5037354;28;20196;-72
2023/07/26 11:18:15;;;;;;;2.33;1.80;;;19.90;96.70;;;;;;5038881;28;20257;-74
2023/07/26 11:20:45;;;;;;;3.43;1.80;;;19.60;95.90;;;;;;5038932;28;20204;-74
2023/07/26 11:23:17;;;;;;;3.07;1.70;;;19.50;96.10;;;;;;5037594;28;20229;-73
2023/07/26 11:25:48;;;;;;;1.80;1.30;;;19.20;96.60;;;;;;5035360;28;20569;-74
2023/07/26 11:28:15;;;;;;;2.17;1.20;;;19.10;97.40;;;;;;5039160;28;20559;-75
2023/07/26 11:30:51;;;;;;;4.53;1.67;;;19.00;98.20;;;;;;5037214;28;20579;-73
2023/07/26 11:33:30;;;;;;;2.23;1.43;;;19.20;98.20;;;;;;5039173;28;20922;-73
2023/07/26 11:35:56;;;;;;;5.57;1.80;;;19.50;97.80;;;;;;5034433;28;20204;-72
2023/07/26 11:38:22;;;;;;;2.63;1.43;;;19.80;97.00;;;;;;5020574;28;20734;-73
2023/07/26 11:40:50;;;;;;;2.03;1.57;;;20.30;96.10;;;;;;5038591;28;20216;-74
2023/07/26 11:43:16;;;;;;;2.20;1.60;;;21.00;94.00;;;;;;5039103;28;20272;-74
2023/07/26 11:45:43;;;;;;;1.60;1.47;;;21.10;92.70;;;;;;5036844;28;20596;-73
2023/07/26 11:48:10;;;;;;;4.03;1.80;;;20.40;93.30;;;;;;5034506;28;20606;-71
2023/07/26 11:50:37;;;;;;;5.50;2.53;;;19.90;99.90;;;;;;5031896;28;20220;-83
2023/07/26 11:53:06;;;;;;;7.40;2.67;;;18.00;99.90;;;;;;5032479;28;20210;-83
2023/07/26 11:55:35;;;;;;;2.53;2.03;;;17.40;99.90;;;;;;5036635;28;20195;-80
2023/07/26 11:58:04;;;;;;;5.30;3.10;;;17.20;99.90;;;;;;5033814;28;20215;-70
2023/07/26 12:00:34;;;;;;;3.67;2.43;;;17.00;99.90;;;;;;5016725;28;21619;-72
2023/07/26 12:03:02;;;;;;;2.43;2.23;;;16.80;99.90;;;;;;5031568;28;20678;-71
2023/07/26 12:05:28;;;;;;;4.97;1.83;;;16.90;99.90;;;;;;5036164;28;20239;-79
2023/07/26 12:07:59;;;;;;;3.00;1.83;;;17.00;99.90;;;;;;5037785;28;20610;-79
2023/07/26 12:10:30;;;;;;;2.03;1.80;;;17.00;99.90;;;;;;5038500;28;20218;-78
2023/07/26 12:12:56;;;;;;;1.73;1.53;;;17.00;99.90;;;;;;5036195;28;20233;-79
2023/07/26 12:15:23;;;;;;;6.70;2.43;;;17.00;99.90;;;;;;5034009;28;20211;-78
2023/07/26 12:18:02;;;;;;;4.63;2.40;;;17.20;99.90;;;;;;5036981;28;20223;-77
2023/07/26 12:20:30;;;;;;;3.83;2.33;;;17.30;99.90;;;;;;5017206;28;20217;-69
2023/07/26 12:22:58;;;;;;;2.80;2.20;;;17.30;99.90;;;;;;5036705;28;20240;-70
2023/07/26 12:25:38;;;;;;;2.23;2.03;;;17.20;99.90;;;;;;5037692;28;21015;-70
2023/07/26 12:28:07;;;;;;;1.50;1.40;;;17.30;99.90;;;;;;5037069;28;20213;-69
2023/07/26 12:30:34;;;;;;;2.37;1.93;;;17.20;99.90;;;;;;5036935;28;20429;-71
2023/07/26 12:33:13;;;;;;;1.73;1.60;;;17.20;99.90;;;;;;5031872;28;20298;-68
2023/07/26 12:35:46;;;;;;;2.77;2.23;;;17.50;99.90;;;;;;5034521;28;20256;-68
2023/07/26 12:38:14;;;;;;;2.00;1.83;;;17.70;99.90;;;;;;5034174;28;20581;-75
2023/07/26 12:40:40;;;;;;;2.63;1.60;;;18.10;99.90;;;;;;5034197;28;20291;-71
2023/07/26 12:43:28;;;;;;;2.97;2.20;;;18.20;99.90;;;;;;5015943;28;20291;-71